createdAt,value
2022-11-06T00:10:21.253Z,98290
2022-11-06T00:22:21.198Z,98290
2022-11-06T00:34:21.196Z,98290
2022-11-06T00:46:21.301Z,98290
2022-11-06T00:58:21.311Z,98280
2022-11-06T01:10:21.265Z,98280
2022-11-06T01:22:21.187Z,98290
2022-11-06T01:34:21.384Z,98280
2022-11-06T01:46:21.277Z,98280
2022-11-06T01:58:21.241Z,98250
2022-11-06T02:10:21.279Z,98240
2022-11-06T02:22:21.190Z,98230
2022-11-06T02:34:21.282Z,98210
2022-11-06T02:46:21.254Z,98220
2022-11-06T02:58:21.258Z,98210
2022-11-06T03:10:21.276Z,98200
2022-11-06T03:22:21.194Z,98210
2022-11-06T03:34:21.229Z,98200
2022-11-06T03:46:21.293Z,98180
2022-11-06T03:58:21.377Z,98170
2022-11-06T04:10:21.183Z,98200
2022-11-06T04:22:21.296Z,98200
2022-11-06T04:34:21.303Z,98210
2022-11-06T04:46:21.232Z,98220
2022-11-06T04:58:21.192Z,98200
2022-11-06T05:10:21.247Z,98190
2022-11-06T05:22:21.185Z,98160
2022-11-06T05:34:21.327Z,98150
2022-11-06T05:46:46.920Z,98140
2022-11-06T05:58:21.196Z,98110
2022-11-06T06:10:21.303Z,98080
2022-11-06T06:22:21.183Z,98080
2022-11-06T06:34:21.203Z,98080
2022-11-06T06:46:21.309Z,98070
2022-11-06T06:58:21.677Z,98060
2022-11-06T07:10:21.192Z,98060
2022-11-06T07:22:29.546Z,98070
2022-11-06T07:34:21.242Z,98090
2022-11-06T07:46:21.191Z,98100
2022-11-06T07:58:21.309Z,98080
2022-11-06T08:10:21.288Z,98080
2022-11-06T08:22:21.282Z,98060
2022-11-06T08:34:21.306Z,98060
2022-11-06T08:46:21.271Z,98040
2022-11-06T08:58:21.197Z,98020
2022-11-06T09:10:21.289Z,98000
2022-11-06T09:22:21.259Z,98000
2022-11-06T09:34:21.311Z,97990
2022-11-06T09:46:21.287Z,97990
2022-11-06T09:58:21.345Z,98000
2022-11-06T10:10:21.187Z,97980
2022-11-06T10:22:21.741Z,97980
2022-11-06T10:34:21.251Z,97960
2022-11-06T10:46:21.308Z,97930
2022-11-06T10:58:21.327Z,97950
2022-11-06T11:10:21.294Z,97930
2022-11-06T11:22:21.196Z,97880
2022-11-06T11:34:21.313Z,97840
2022-11-06T11:46:21.242Z,97850
2022-11-06T11:58:21.238Z,97830
2022-11-06T12:10:21.325Z,97760
2022-11-06T12:22:21.188Z,97780
2022-11-06T12:34:21.195Z,97750
2022-11-06T12:46:21.242Z,97710
2022-11-06T12:58:21.205Z,97700
2022-11-06T13:10:21.301Z,97670
2022-11-06T13:22:21.286Z,97660
2022-11-06T13:34:21.206Z,97660
2022-11-06T13:46:21.207Z,97650
2022-11-06T13:58:21.198Z,97660
2022-11-06T14:10:21.286Z,97630
2022-11-06T14:22:21.254Z,97620
2022-11-06T14:34:21.218Z,97610
2022-11-06T14:46:22.598Z,97610
2022-11-06T14:58:21.299Z,97590
2022-11-06T15:10:21.261Z,97570
2022-11-06T15:22:21.281Z,97590
2022-11-06T15:34:21.197Z,97600
2022-11-06T15:46:21.298Z,97600
2022-11-06T15:58:21.269Z,97600
2022-11-06T16:10:21.196Z,97600
2022-11-06T16:22:21.317Z,97580
2022-11-06T16:34:21.248Z,97580
2022-11-06T16:46:21.278Z,97560
2022-11-06T16:58:21.313Z,97500
2022-11-06T17:10:21.300Z,97490
2022-11-06T17:22:21.211Z,97480
2022-11-06T17:34:21.201Z,97510
2022-11-06T17:46:21.307Z,97530
2022-11-06T17:58:21.194Z,97550
2022-11-06T18:10:22.888Z,97550
2022-11-06T18:22:21.297Z,97510
2022-11-06T18:34:21.493Z,97490
2022-11-06T18:46:21.309Z,97490
2022-11-06T18:58:21.273Z,97510
2022-11-06T19:10:21.217Z,97520
2022-11-06T19:22:21.188Z,97520
2022-11-06T19:34:21.297Z,97510
2022-11-06T19:46:25.100Z,97510
2022-11-06T19:58:21.197Z,97520
2022-11-06T20:10:21.313Z,97530
2022-11-06T20:22:21.196Z,97540
2022-11-06T20:34:21.256Z,97570
2022-11-06T20:46:21.295Z,97580
2022-11-06T20:58:21.280Z,97590
2022-11-06T21:10:21.239Z,97610
2022-11-06T21:22:21.279Z,97610
2022-11-06T21:34:21.202Z,97640
2022-11-06T21:46:21.271Z,97630
2022-11-06T21:58:21.291Z,97630
2022-11-06T22:10:21.188Z,97630
2022-11-06T22:22:21.194Z,97640
2022-11-06T22:34:21.293Z,97660
2022-11-06T22:46:21.255Z,97670
2022-11-06T22:58:21.295Z,97680
2022-11-06T23:10:21.301Z,97690
2022-11-06T23:22:21.285Z,97700
2022-11-06T23:34:21.253Z,97700
2022-11-06T23:46:21.297Z,97710
2022-11-06T23:58:21.312Z,97700
